createdAt,value
2022-11-16T00:02:18.906Z,70.30
2022-11-16T00:04:46.008Z,70.20
2022-11-16T00:07:12.962Z,70.73
2022-11-16T00:09:39.923Z,69.55
2022-11-16T00:12:09.679Z,69.78
2022-11-16T00:14:36.855Z,69.82
2022-11-16T00:17:04.411Z,69.13
2022-11-16T00:19:31.494Z,70.32
2022-11-16T00:21:58.772Z,69.28
2022-11-16T00:24:25.828Z,69.55
2022-11-16T00:26:54.844Z,69.03
2022-11-16T00:29:26.560Z,70.38
2022-11-16T00:31:54.296Z,70.41
2022-11-16T00:34:22.569Z,70.32
2022-11-16T00:36:49.772Z,70.74
2022-11-16T00:39:17.862Z,70.15
2022-11-16T00:41:46.842Z,70.49
2022-11-16T00:44:13.883Z,71.20
2022-11-16T00:46:41.299Z,70.90
2022-11-16T00:49:08.710Z,70.63
2022-11-16T00:51:36.952Z,70.43
2022-11-16T00:54:05.345Z,70.25
2022-11-16T00:56:35.883Z,70.19
2022-11-16T00:59:03.438Z,69.94
2022-11-16T01:01:30.542Z,69.15
2022-11-16T01:03:57.516Z,70.08
2022-11-16T01:06:24.364Z,69.54
2022-11-16T01:08:51.451Z,70.22
2022-11-16T01:11:37.196Z,70.28
2022-11-16T01:14:06.452Z,68.67
2022-11-16T01:16:33.283Z,69.22
2022-11-16T01:19:00.601Z,71.03
2022-11-16T01:21:28.259Z,70.58
2022-11-16T01:23:57.170Z,71.08
2022-11-16T01:26:24.784Z,70.52
2022-11-16T01:28:52.673Z,70.94
2022-11-16T01:31:20.223Z,70.05
2022-11-16T01:33:49.352Z,70.38
2022-11-16T01:36:25.911Z,70.27
2022-11-16T01:38:54.188Z,71.24
2022-11-16T01:41:26.395Z,70.88
2022-11-16T01:44:07.411Z,70.59
2022-11-16T01:46:48.223Z,70.38
2022-11-16T01:49:20.674Z,71.44
2022-11-16T01:51:53.543Z,70.51
2022-11-16T01:54:21.147Z,71.92
2022-11-16T01:57:00.709Z,71.24
2022-11-16T01:59:38.073Z,70.71
2022-11-16T02:02:07.239Z,71.32
2022-11-16T02:04:35.023Z,70.82
2022-11-16T02:07:28.025Z,70.56
2022-11-16T02:10:30.428Z,70.49
2022-11-16T02:13:07.518Z,69.87
2022-11-16T02:15:49.712Z,69.86
2022-11-16T02:18:35.726Z,70.26
2022-11-16T02:21:24.764Z,70.70
2022-11-16T02:24:26.085Z,71.80
2022-11-16T02:27:11.869Z,71.87
2022-11-16T02:29:47.726Z,71.25
2022-11-16T02:32:31.730Z,70.79
2022-11-16T02:35:13.805Z,71.43
2022-11-16T02:37:48.700Z,71.03
2022-11-16T02:40:20.549Z,72.80
2022-11-16T02:43:17.855Z,71.89
2022-11-16T02:45:49.912Z,72.74
2022-11-16T02:48:24.803Z,71.72
2022-11-16T02:50:53.589Z,71.98
2022-11-16T02:53:22.132Z,72.38
2022-11-16T02:55:49.341Z,71.56
2022-11-16T02:58:26.110Z,71.74
2022-11-16T03:01:30.119Z,71.53
2022-11-16T03:04:11.796Z,71.68
2022-11-16T03:06:41.648Z,72.07
2022-11-16T03:09:17.248Z,71.37
2022-11-16T03:12:02.305Z,72.63
2022-11-16T03:14:38.977Z,72.94
2022-11-16T03:17:14.282Z,72.67
2022-11-16T03:19:51.892Z,73.16
2022-11-16T03:22:30.946Z,72.10
2022-11-16T03:24:57.989Z,73.46
2022-11-16T03:27:30.342Z,73.02
2022-11-16T03:30:05.811Z,72.74
2022-11-16T03:32:34.365Z,72.79
2022-11-16T03:35:21.662Z,73.07
2022-11-16T03:37:52.220Z,71.90
2022-11-16T03:40:23.258Z,72.21
2022-11-16T03:42:51.208Z,72.83
2022-11-16T03:45:18.984Z,72.42
2022-11-16T03:47:46.325Z,72.30
2022-11-16T03:50:15.114Z,72.24
2022-11-16T03:52:43.486Z,72.31
2022-11-16T03:55:12.892Z,71.72
2022-11-16T03:57:40.103Z,71.54
2022-11-16T04:00:08.119Z,72.16
2022-11-16T04:02:41.480Z,71.65
2022-11-16T04:05:31.339Z,72.11
2022-11-16T04:08:17.624Z,73.21
2022-11-16T04:11:03.116Z,73.02
2022-11-16T04:13:52.027Z,73.09
2022-11-16T04:16:37.471Z,72.88
2022-11-16T04:19:27.702Z,72.71
2022-11-16T04:22:25.902Z,73.73
2022-11-16T04:24:58.665Z,73.90
2022-11-16T04:27:48.486Z,73.71
2022-11-16T04:30:16.124Z,74.19
2022-11-16T04:33:02.145Z,74.25
2022-11-16T04:35:47.447Z,74.36
2022-11-16T04:38:14.786Z,74.14
2022-11-16T04:40:41.673Z,74.05
2022-11-16T04:43:11.489Z,73.37
2022-11-16T04:46:00.028Z,74.13
2022-11-16T04:48:34.627Z,73.45
2022-11-16T04:51:02.830Z,74.79
2022-11-16T04:53:30.550Z,75.06
2022-11-16T04:56:07.997Z,74.28
2022-11-16T04:58:35.262Z,75.33
2022-11-16T05:01:02.964Z,74.90
2022-11-16T05:03:29.956Z,75.77
2022-11-16T05:05:56.777Z,75.33
2022-11-16T05:08:25.513Z,75.28
2022-11-16T05:10:53.877Z,74.08
2022-11-16T05:13:20.727Z,75.04
2022-11-16T05:15:49.899Z,74.46
2022-11-16T05:18:17.203Z,74.52
2022-11-16T05:21:02.271Z,74.91
2022-11-16T05:23:52.988Z,73.99
2022-11-16T05:26:22.506Z,74.53
2022-11-16T05:28:50.399Z,75.16
2022-11-16T05:31:17.301Z,74.68
2022-11-16T05:33:44.709Z,73.75
2022-11-16T05:36:12.932Z,75.08
2022-11-16T05:38:39.855Z,73.26
2022-11-16T05:41:06.686Z,73.94
2022-11-16T05:43:33.859Z,74.08
2022-11-16T05:46:11.720Z,73.39
2022-11-16T05:48:39.257Z,73.26
2022-11-16T05:51:07.183Z,73.51
2022-11-16T05:53:34.922Z,73.19
2022-11-16T05:56:02.125Z,71.97
2022-11-16T05:58:30.657Z,72.89
2022-11-16T06:00:59.571Z,71.52
2022-11-16T06:03:29.635Z,72.00
2022-11-16T06:05:58.270Z,71.20
2022-11-16T06:08:27.267Z,72.09
2022-11-16T06:10:56.685Z,72.19
2022-11-16T06:13:23.636Z,71.80
2022-11-16T06:15:55.112Z,72.16
2022-11-16T06:18:22.887Z,72.61
2022-11-16T06:20:50.589Z,73.04
2022-11-16T06:23:20.965Z,71.36
2022-11-16T06:25:52.184Z,69.79
2022-11-16T06:28:19.072Z,68.68
2022-11-16T06:30:46.218Z,67.45
2022-11-16T06:33:13.131Z,64.45
2022-11-16T06:35:40.061Z,63.66
2022-11-16T06:38:08.029Z,62.65
2022-11-16T06:40:35.094Z,60.22
2022-11-16T06:43:03.513Z,59.45
2022-11-16T06:45:30.595Z,58.19
2022-11-16T06:48:00.527Z,57.57
2022-11-16T06:50:27.474Z,57.31
2022-11-16T06:52:55.202Z,56.81
2022-11-16T06:55:23.110Z,56.94
2022-11-16T06:57:49.995Z,56.44
2022-11-16T07:00:17.855Z,55.14
2022-11-16T07:02:46.573Z,54.96
2022-11-16T07:05:17.100Z,55.16
2022-11-16T07:07:45.543Z,54.36
2022-11-16T07:10:13.505Z,53.88
2022-11-16T07:12:41.945Z,53.16
2022-11-16T07:15:09.304Z,53.73
2022-11-16T07:17:39.803Z,54.21
2022-11-16T07:20:07.093Z,55.46
2022-11-16T07:22:33.875Z,53.84
2022-11-16T07:25:00.779Z,54.81
2022-11-16T07:27:27.628Z,54.02
2022-11-16T07:29:54.497Z,53.71
2022-11-16T07:32:33.936Z,53.25
2022-11-16T07:35:03.802Z,52.72
2022-11-16T07:37:31.709Z,53.28
2022-11-16T07:39:58.686Z,52.29
2022-11-16T07:42:25.618Z,52.31
2022-11-16T07:45:08.031Z,51.65
2022-11-16T07:47:39.829Z,51.36
2022-11-16T07:50:11.667Z,51.01
2022-11-16T07:52:38.521Z,51.96
2022-11-16T07:55:08.360Z,52.35
2022-11-16T07:57:35.486Z,51.59
2022-11-16T08:00:06.571Z,52.62
2022-11-16T08:02:47.336Z,54.40
2022-11-16T08:05:18.467Z,55.15
2022-11-16T08:07:46.199Z,54.97
2022-11-16T08:10:13.307Z,55.84
2022-11-16T08:12:40.810Z,55.92
2022-11-16T08:15:08.400Z,56.58
2022-11-16T08:17:35.248Z,56.03
2022-11-16T08:20:04.848Z,54.63
2022-11-16T08:22:31.708Z,53.35
2022-11-16T08:24:58.558Z,53.50
2022-11-16T08:27:26.045Z,54.31
2022-11-16T08:29:56.266Z,54.03
2022-11-16T08:32:23.540Z,56.18
2022-11-16T08:34:50.594Z,54.91
2022-11-16T08:37:17.503Z,56.48
2022-11-16T08:39:45.686Z,55.69
2022-11-16T08:42:12.996Z,54.47
2022-11-16T08:44:44.052Z,53.29
2022-11-16T08:47:14.070Z,51.38
2022-11-16T08:52:45.466Z,51.27
2022-11-16T08:55:13.988Z,50.54
2022-11-16T08:57:42.351Z,51.08
2022-11-16T09:00:12.510Z,51.68
2022-11-16T09:02:39.329Z,52.28
2022-11-16T09:05:08.038Z,50.42
2022-11-16T09:07:34.842Z,49.55
2022-11-16T09:10:01.669Z,49.09
2022-11-16T09:15:12.506Z,51.41
2022-11-16T09:17:39.372Z,51.19
2022-11-16T09:20:06.872Z,50.20
2022-11-16T09:22:33.881Z,50.29
2022-11-16T09:25:00.868Z,49.45
2022-11-16T09:27:27.659Z,49.56
2022-11-16T09:29:54.455Z,49.23
2022-11-16T09:32:21.297Z,49.75
2022-11-16T09:34:48.174Z,49.97
2022-11-16T09:37:15.454Z,48.38
2022-11-16T09:39:42.244Z,47.60
2022-11-16T09:42:46.313Z,47.65
2022-11-16T09:45:41.328Z,48.52
2022-11-16T09:48:12.442Z,48.02
2022-11-16T09:51:02.946Z,48.80
2022-11-16T09:53:40.335Z,48.97
2022-11-16T09:56:17.780Z,48.56
2022-11-16T09:59:01.401Z,47.79
2022-11-16T10:01:47.941Z,47.98
2022-11-16T10:04:20.753Z,48.35
2022-11-16T10:06:58.857Z,47.27
2022-11-16T10:09:26.089Z,47.23
2022-11-16T10:12:05.869Z,48.41
2022-11-16T10:14:50.637Z,48.60
2022-11-16T10:17:31.847Z,47.30
2022-11-16T10:20:39.803Z,48.28
2022-11-16T10:23:12.301Z,48.28
2022-11-16T10:25:50.672Z,47.10
2022-11-16T10:28:26.604Z,47.64
2022-11-16T10:31:19.781Z,47.96
2022-11-16T10:33:51.256Z,47.03
2022-11-16T10:36:21.441Z,46.89
2022-11-16T10:38:48.596Z,46.16
2022-11-16T10:41:21.568Z,46.95
2022-11-16T10:43:48.679Z,46.41
2022-11-16T10:46:19.793Z,46.94
2022-11-16T10:48:58.874Z,46.54
2022-11-16T10:51:25.761Z,47.04
2022-11-16T10:53:53.296Z,46.97
2022-11-16T10:56:28.384Z,47.17
2022-11-16T10:58:56.768Z,46.48
2022-11-16T11:01:59.184Z,46.98
2022-11-16T11:04:31.396Z,45.63
2022-11-16T11:07:16.823Z,45.47
2022-11-16T11:09:43.922Z,45.58
2022-11-16T11:12:40.562Z,45.91
2022-11-16T11:15:25.808Z,45.01
2022-11-16T11:18:19.478Z,44.79
2022-11-16T11:21:15.487Z,45.13
2022-11-16T11:23:50.829Z,45.37
2022-11-16T11:26:37.561Z,46.63
2022-11-16T11:29:22.433Z,46.52
2022-11-16T11:31:53.160Z,45.83
2022-11-16T11:34:46.046Z,45.34
2022-11-16T11:37:17.552Z,45.57
2022-11-16T11:39:45.044Z,43.95
2022-11-16T11:42:15.005Z,44.93
2022-11-16T11:45:00.766Z,45.11
2022-11-16T11:48:14.618Z,45.13
2022-11-16T11:50:57.703Z,45.06
2022-11-16T11:53:27.439Z,45.05
2022-11-16T11:56:00.598Z,44.49
2022-11-16T11:58:34.065Z,44.37
2022-11-16T12:01:25.938Z,43.72
2022-11-16T12:04:05.884Z,44.07
2022-11-16T12:07:15.529Z,44.94
2022-11-16T12:10:29.666Z,44.61
2022-11-16T12:13:20.966Z,43.29
2022-11-16T12:16:11.424Z,43.83
2022-11-16T12:18:49.921Z,43.41
2022-11-16T12:21:36.250Z,42.84
2022-11-16T12:24:43.411Z,43.17
2022-11-16T12:27:40.093Z,42.78
2022-11-16T12:30:07.038Z,42.27
2022-11-16T12:32:45.361Z,42.54
2022-11-16T12:35:37.067Z,42.63
2022-11-16T12:38:29.982Z,42.58
2022-11-16T12:41:21.751Z,41.87
2022-11-16T12:43:59.727Z,42.42
2022-11-16T12:46:47.788Z,43.07
2022-11-16T12:49:24.319Z,43.01
2022-11-16T12:51:59.930Z,43.02
2022-11-16T12:55:23.629Z,44.48
2022-11-16T12:58:01.314Z,43.28
2022-11-16T13:00:32.836Z,42.72
2022-11-16T13:03:13.108Z,43.75
2022-11-16T13:05:42.852Z,43.10
2022-11-16T13:08:23.822Z,43.90
2022-11-16T13:10:57.501Z,44.76
2022-11-16T13:13:38.594Z,44.95
2022-11-16T13:16:07.027Z,45.35
2022-11-16T13:18:37.812Z,45.82
2022-11-16T13:21:15.937Z,46.24
2022-11-16T13:23:48.726Z,46.34
2022-11-16T13:26:21.432Z,46.30
2022-11-16T13:29:04.057Z,46.14
2022-11-16T13:31:36.799Z,46.00
2022-11-16T13:34:11.904Z,47.80
2022-11-16T13:36:43.778Z,47.94
2022-11-16T13:39:18.688Z,48.12
2022-11-16T13:42:05.609Z,48.42
2022-11-16T13:44:33.685Z,49.16
2022-11-16T13:47:06.253Z,50.07
2022-11-16T13:49:36.747Z,51.39
2022-11-16T13:52:23.300Z,51.90
2022-11-16T13:54:54.678Z,52.75
2022-11-16T13:57:26.077Z,52.88
2022-11-16T14:00:02.240Z,52.55
2022-11-16T14:02:31.157Z,53.21
2022-11-16T14:05:01.430Z,52.50
2022-11-16T14:07:47.205Z,52.94
2022-11-16T14:10:36.037Z,53.08
2022-11-16T14:13:04.574Z,52.79
2022-11-16T14:15:38.756Z,52.69
2022-11-16T14:18:09.308Z,54.02
2022-11-16T14:20:51.449Z,53.22
2022-11-16T14:23:29.265Z,53.27
2022-11-16T14:26:14.731Z,53.33
2022-11-16T14:29:09.100Z,54.52
2022-11-16T14:31:59.583Z,55.02
2022-11-16T14:34:44.782Z,56.01
2022-11-16T14:37:28.520Z,55.59
2022-11-16T14:40:15.886Z,56.07
2022-11-16T14:43:15.533Z,56.71
2022-11-16T14:45:39.202Z,56.73
2022-11-16T14:48:15.411Z,56.98
2022-11-16T14:50:46.874Z,57.91
2022-11-16T14:53:19.685Z,56.66
2022-11-16T14:55:46.534Z,57.69
2022-11-16T14:58:22.144Z,57.40
2022-11-16T15:00:59.080Z,57.47
2022-11-16T15:03:30.118Z,56.88
2022-11-16T15:06:02.454Z,57.23
2022-11-16T15:08:54.519Z,58.22
2022-11-16T15:11:51.631Z,58.92
2022-11-16T15:14:21.538Z,59.02
2022-11-16T15:16:55.697Z,58.48
2022-11-16T15:19:24.295Z,58.43
2022-11-16T15:22:02.588Z,58.84
2022-11-16T15:24:34.471Z,58.58
2022-11-16T15:27:11.700Z,59.81
2022-11-16T15:29:39.133Z,60.56
2022-11-16T15:32:12.996Z,60.27
2022-11-16T15:34:40.924Z,60.42
2022-11-16T15:37:11.855Z,60.48
2022-11-16T15:39:39.664Z,60.44
2022-11-16T15:42:08.180Z,60.23
2022-11-16T15:44:35.256Z,60.30
2022-11-16T15:47:03.335Z,60.27
2022-11-16T15:49:33.841Z,60.19
2022-11-16T15:52:01.275Z,59.73
2022-11-16T15:54:31.153Z,58.88
2022-11-16T15:57:12.484Z,58.57
2022-11-16T15:59:39.837Z,59.22
2022-11-16T16:02:17.607Z,59.13
2022-11-16T16:04:44.444Z,59.67
2022-11-16T16:07:11.346Z,59.51
2022-11-16T16:09:40.495Z,60.19
2022-11-16T16:12:19.387Z,60.11
2022-11-16T16:14:49.152Z,60.18
2022-11-16T16:17:27.953Z,60.45
2022-11-16T16:19:58.928Z,59.96
2022-11-16T16:22:33.116Z,59.74
2022-11-16T16:25:01.605Z,60.30
2022-11-16T16:27:30.084Z,61.11
2022-11-16T16:29:58.351Z,61.49
2022-11-16T16:32:26.628Z,61.68
2022-11-16T16:34:55.076Z,61.97
2022-11-16T16:37:22.522Z,62.75
2022-11-16T16:39:49.380Z,63.04
2022-11-16T16:42:17.041Z,63.21
2022-11-16T16:44:45.450Z,62.91
2022-11-16T16:47:12.656Z,62.29
2022-11-16T16:49:39.751Z,62.61
2022-11-16T16:52:07.750Z,63.37
2022-11-16T16:54:34.626Z,62.99
2022-11-16T16:57:02.493Z,63.10
2022-11-16T16:59:32.704Z,63.59
2022-11-16T17:01:59.912Z,63.74
2022-11-16T17:04:26.847Z,64.08
2022-11-16T17:06:54.464Z,64.16
2022-11-16T17:09:21.368Z,64.55
2022-11-16T17:11:48.436Z,63.28
2022-11-16T17:14:15.344Z,63.91
2022-11-16T17:16:42.290Z,63.90
2022-11-16T17:19:09.144Z,64.29
2022-11-16T17:21:35.940Z,63.91
2022-11-16T17:24:02.815Z,64.49
2022-11-16T17:26:29.715Z,64.43
2022-11-16T17:28:57.938Z,64.17
2022-11-16T17:31:26.115Z,64.65
2022-11-16T17:33:52.975Z,64.99
2022-11-16T17:36:20.127Z,65.17
2022-11-16T17:38:47.144Z,65.97
2022-11-16T17:41:19.258Z,65.98
2022-11-16T17:43:46.562Z,65.63
2022-11-16T17:46:16.330Z,65.80
2022-11-16T17:48:45.474Z,65.83
2022-11-16T17:51:13.730Z,66.08
2022-11-16T17:53:40.954Z,65.83
2022-11-16T17:56:08.392Z,66.71
2022-11-16T17:58:35.258Z,65.22
2022-11-16T18:01:02.115Z,66.02
2022-11-16T18:03:29.074Z,66.02
2022-11-16T18:06:11.127Z,66.77
2022-11-16T18:08:38.145Z,67.03
2022-11-16T18:11:13.743Z,67.00
2022-11-16T18:13:40.965Z,66.57
2022-11-16T18:16:14.066Z,67.64
2022-11-16T18:18:42.005Z,66.94
2022-11-16T18:21:09.882Z,67.50
2022-11-16T18:23:38.104Z,68.27
2022-11-16T18:26:14.509Z,67.62
2022-11-16T18:28:43.994Z,67.03
2022-11-16T18:31:13.997Z,67.56
2022-11-16T18:33:40.883Z,67.72
2022-11-16T18:36:08.691Z,66.38
2022-11-16T18:38:36.530Z,66.13
2022-11-16T18:41:12.281Z,67.30
2022-11-16T18:43:48.404Z,67.87
2022-11-16T18:46:15.481Z,67.83
2022-11-16T18:48:43.507Z,66.53
2022-11-16T18:51:11.286Z,65.37
2022-11-16T18:53:38.528Z,65.38
2022-11-16T18:56:06.069Z,65.38
2022-11-16T18:58:49.941Z,65.49
2022-11-16T19:01:19.341Z,65.85
2022-11-16T19:03:46.355Z,66.08
2022-11-16T19:06:14.958Z,67.05
2022-11-16T19:08:42.933Z,67.56
2022-11-16T19:11:12.877Z,66.94
2022-11-16T19:13:41.572Z,66.25
2022-11-16T19:16:09.803Z,66.29
2022-11-16T19:18:37.303Z,67.44
2022-11-16T19:21:06.285Z,66.45
2022-11-16T19:23:44.531Z,67.47
2022-11-16T19:26:13.415Z,68.04
2022-11-16T19:28:42.540Z,68.41
2022-11-16T19:31:17.072Z,68.19
2022-11-16T19:33:44.635Z,68.77
2022-11-16T19:36:19.009Z,69.03
2022-11-16T19:38:47.415Z,68.55
2022-11-16T19:41:15.882Z,67.03
2022-11-16T19:43:42.817Z,67.84
2022-11-16T19:46:11.812Z,67.24
2022-11-16T19:48:39.265Z,67.00
2022-11-16T19:51:15.460Z,67.42
2022-11-16T19:53:42.606Z,68.42
2022-11-16T19:56:12.202Z,67.49
2022-11-16T19:58:39.117Z,66.99
2022-11-16T20:01:09.910Z,67.18
2022-11-16T20:03:40.573Z,67.12
2022-11-16T20:06:11.105Z,66.83
2022-11-16T20:08:39.510Z,66.71
2022-11-16T20:11:20.337Z,66.96
2022-11-16T20:13:48.435Z,67.55
2022-11-16T20:16:16.454Z,67.44
2022-11-16T20:18:44.555Z,66.33
2022-11-16T20:21:34.687Z,67.40
2022-11-16T20:24:06.707Z,67.46
2022-11-16T20:26:36.935Z,67.15
2022-11-16T20:29:04.082Z,67.19
2022-11-16T20:31:32.762Z,67.39
2022-11-16T20:34:04.985Z,66.79
2022-11-16T20:36:33.490Z,67.32
2022-11-16T20:39:00.645Z,66.67
2022-11-16T20:41:32.347Z,68.09
2022-11-16T20:44:01.590Z,67.35
2022-11-16T20:46:30.966Z,66.66
2022-11-16T20:48:59.510Z,66.69
2022-11-16T20:51:27.800Z,67.75
2022-11-16T20:53:54.692Z,66.57
2022-11-16T20:56:21.959Z,67.85
2022-11-16T20:58:49.691Z,68.46
2022-11-16T21:01:17.850Z,67.28
2022-11-16T21:03:44.857Z,66.80
2022-11-16T21:06:15.481Z,67.10
2022-11-16T21:08:42.652Z,67.41
2022-11-16T21:11:25.088Z,67.16
2022-11-16T21:14:11.192Z,68.36
2022-11-16T21:16:38.948Z,68.13
2022-11-16T21:19:06.149Z,67.41
2022-11-16T21:21:33.604Z,67.44
2022-11-16T21:24:00.688Z,67.90
2022-11-16T21:26:29.779Z,68.63
2022-11-16T21:28:57.884Z,68.40
2022-11-16T21:31:27.568Z,68.90
2022-11-16T21:33:54.931Z,70.08
2022-11-16T21:36:24.765Z,70.52
2022-11-16T21:38:52.580Z,70.34
2022-11-16T21:41:21.326Z,69.96
2022-11-16T21:43:48.421Z,70.48
2022-11-16T21:46:24.962Z,70.55
2022-11-16T21:48:53.865Z,71.17
2022-11-16T21:51:22.585Z,71.61
2022-11-16T21:53:49.446Z,71.38
2022-11-16T21:56:19.455Z,70.40
2022-11-16T21:58:46.928Z,70.42
2022-11-16T22:01:16.147Z,70.92
2022-11-16T22:03:44.807Z,70.77
2022-11-16T22:06:34.655Z,71.29
2022-11-16T22:09:01.962Z,70.21
2022-11-16T22:11:29.060Z,70.23
2022-11-16T22:13:55.880Z,70.31
2022-11-16T22:16:23.571Z,70.80
2022-11-16T22:18:50.912Z,71.31
2022-11-16T22:21:17.780Z,70.33
2022-11-16T22:23:44.691Z,71.45
2022-11-16T22:26:13.072Z,71.23
2022-11-16T22:28:40.373Z,71.02
2022-11-16T22:31:14.933Z,71.01
2022-11-16T22:33:42.500Z,70.96
2022-11-16T22:36:10.839Z,70.13
2022-11-16T22:38:38.183Z,69.25
2022-11-16T22:41:05.440Z,70.46
2022-11-16T22:43:33.137Z,70.54
2022-11-16T22:46:05.573Z,70.46
2022-11-16T22:48:33.504Z,69.64
2022-11-16T22:51:27.856Z,69.60
2022-11-16T22:53:56.182Z,68.90
2022-11-16T22:56:23.833Z,69.28
2022-11-16T22:58:51.145Z,69.36
2022-11-16T23:01:18.276Z,69.88
2022-11-16T23:03:45.189Z,69.93
2022-11-16T23:06:12.019Z,70.62
2022-11-16T23:08:40.183Z,71.08
2022-11-16T23:11:27.330Z,70.34
2022-11-16T23:14:12.895Z,70.50
2022-11-16T23:16:40.930Z,71.18
2022-11-16T23:19:27.967Z,70.92
2022-11-16T23:22:14.632Z,71.23
2022-11-16T23:25:00.335Z,71.55
2022-11-16T23:27:37.407Z,71.05
2022-11-16T23:30:12.140Z,70.46
2022-11-16T23:32:40.404Z,70.93
2022-11-16T23:35:07.909Z,71.05
2022-11-16T23:37:35.040Z,70.74
2022-11-16T23:40:01.850Z,70.30
2022-11-16T23:42:48.226Z,71.01
2022-11-16T23:45:15.438Z,70.43
2022-11-16T23:47:42.625Z,70.23
2022-11-16T23:50:09.641Z,70.04
2022-11-16T23:52:36.461Z,70.43
2022-11-16T23:55:03.364Z,70.50
2022-11-16T23:57:30.135Z,70.31
2022-11-16T23:59:56.949Z,69.98
